Time;durP1;ratioP1;P1;durP2;ratioP2;P2;SDS_P1;SDS_P2;PMS_P1;PMS_P2;Temp;Humidity;BMP_temperature;BMP_pressure;BME280_temperature;BME280_humidity;BME280_pressure;Samples;Min_cycle;Max_cycle;Signal;HPM_P1;HPM_P2
2022/06/30 00:01:36;;;;;;;8.00;7.40;;;21.60;99.90;;;;;;5092048;28;20547;-73
2022/06/30 00:04:04;;;;;;;8.50;7.80;;;21.50;99.90;;;;;;5092445;28;20536;-73
2022/06/30 00:06:31;;;;;;;8.40;7.70;;;21.50;99.90;;;;;;5092332;28;20535;-72
2022/06/30 00:08:59;;;;;;;8.77;7.97;;;21.40;99.90;;;;;;5092340;28;20531;-73
2022/06/30 00:11:26;;;;;;;8.03;7.43;;;21.40;99.90;;;;;;5092130;28;20530;-73
2022/06/30 00:13:53;;;;;;;9.67;8.40;;;21.40;99.90;;;;;;5092357;28;20574;-73
2022/06/30 00:16:20;;;;;;;8.07;7.33;;;21.50;99.90;;;;;;5092078;28;20530;-72
2022/06/30 00:18:47;;;;;;;7.23;6.63;;;21.40;99.90;;;;;;5092225;28;20859;-74
2022/06/30 00:21:14;;;;;;;8.17;7.50;;;21.40;99.90;;;;;;5092343;28;20488;-72
2022/06/30 00:23:41;;;;;;;9.40;7.10;;;21.40;99.90;;;;;;5092902;28;20534;-72
2022/06/30 00:26:09;;;;;;;7.53;6.83;;;21.40;99.90;;;;;;5092382;28;20526;-71
2022/06/30 00:28:36;;;;;;;7.00;6.40;;;21.40;99.90;;;;;;5092083;28;20865;-71
2022/06/30 00:31:03;;;;;;;7.20;6.60;;;21.40;99.90;;;;;;5091807;28;20546;-72
2022/06/30 00:33:30;;;;;;;7.27;6.73;;;21.40;99.90;;;;;;5092560;28;20479;-71
2022/06/30 00:35:57;;;;;;;7.80;7.10;;;21.40;99.90;;;;;;5092141;28;20454;-71
2022/06/30 00:38:24;;;;;;;7.70;7.07;;;21.40;99.90;;;;;;5095240;28;20603;-71
2022/06/30 00:40:51;;;;;;;7.80;7.20;;;21.30;99.90;;;;;;5096191;28;20546;-72
2022/06/30 00:43:19;;;;;;;7.57;6.97;;;21.30;99.90;;;;;;5096342;28;20791;-73
2022/06/30 00:45:48;;;;;;;9.10;7.53;;;21.30;99.90;;;;;;5095922;28;20529;-73
2022/06/30 00:48:17;;;;;;;9.00;7.83;;;21.20;99.90;;;;;;5096188;28;20542;-73
2022/06/30 00:50:44;;;;;;;8.60;7.70;;;21.20;99.90;;;;;;5096020;28;20554;-72
2022/06/30 00:53:12;;;;;;;7.63;7.03;;;21.20;99.90;;;;;;5096295;28;20538;-72
2022/06/30 00:55:39;;;;;;;8.27;7.57;;;21.10;99.90;;;;;;5095658;28;20443;-73
2022/06/30 00:58:08;;;;;;;8.47;7.67;;;21.10;99.90;;;;;;5095640;28;20889;-73
2022/06/30 01:00:39;;;;;;;8.50;7.70;;;21.00;99.90;;;;;;5095905;28;20873;-73
2022/06/30 01:03:07;;;;;;;8.53;7.83;;;21.00;99.90;;;;;;5096166;28;20534;-72
2022/06/30 01:05:34;;;;;;;8.40;7.70;;;21.10;99.90;;;;;;5095799;28;20447;-72
2022/06/30 01:08:03;;;;;;;9.10;8.30;;;21.10;99.90;;;;;;5095322;28;20827;-73
2022/06/30 01:13:14;;;;;;;10.10;9.10;;;21.10;99.90;;;;;;5095898;28;20424;-71
2022/06/30 01:15:42;;;;;;;9.90;9.10;;;21.10;99.90;;;;;;5095629;28;20527;-71
2022/06/30 01:18:09;;;;;;;10.27;9.40;;;21.10;99.90;;;;;;5095332;28;20555;-71
2022/06/30 01:20:36;;;;;;;10.53;9.63;;;21.00;99.90;;;;;;5095710;28;20554;-70
2022/06/30 01:23:06;;;;;;;10.23;9.33;;;21.00;99.90;;;;;;5095550;28;20531;-71
2022/06/30 01:25:35;;;;;;;10.27;9.40;;;20.90;99.90;;;;;;5095168;28;21012;-72
2022/06/30 01:28:02;;;;;;;9.70;8.90;;;20.90;99.90;;;;;;5095210;28;20530;-71
2022/06/30 01:30:29;;;;;;;9.57;8.77;;;20.90;99.90;;;;;;5095053;28;20555;-71
2022/06/30 01:32:56;;;;;;;8.83;8.13;;;20.90;99.90;;;;;;5095995;28;20447;-72
2022/06/30 01:35:23;;;;;;;10.20;9.20;;;20.80;99.90;;;;;;5094858;28;20491;-71
2022/06/30 01:37:52;;;;;;;10.20;9.30;;;20.90;99.90;;;;;;5094984;28;20511;-72
2022/06/30 01:40:21;;;;;;;10.03;8.57;;;20.70;99.90;;;;;;5095669;28;20463;-73
2022/06/30 01:42:48;;;;;;;9.97;9.17;;;20.70;99.90;;;;;;5095664;28;20458;-73
2022/06/30 01:45:16;;;;;;;9.43;8.53;;;20.70;99.90;;;;;;5095349;28;20460;-73
2022/06/30 01:47:43;;;;;;;10.83;9.90;;;20.60;99.90;;;;;;5094742;28;21024;-70
2022/06/30 01:50:12;;;;;;;10.07;9.20;;;20.60;99.90;;;;;;5093542;28;20458;-71
2022/06/30 01:52:39;;;;;;;10.73;9.63;;;20.60;99.90;;;;;;5095006;28;21000;-70
2022/06/30 01:55:07;;;;;;;10.43;9.53;;;20.70;99.90;;;;;;5094671;28;20565;-70
2022/06/30 01:57:36;;;;;;;10.40;9.57;;;20.60;99.90;;;;;;5094389;28;20450;-70
2022/06/30 02:00:05;;;;;;;10.57;9.67;;;20.60;99.90;;;;;;5094871;28;20463;-70
2022/06/30 02:02:31;;;;;;;10.57;9.57;;;20.60;99.90;;;;;;5094772;28;20992;-72
2022/06/30 02:04:58;;;;;;;9.73;8.93;;;20.60;99.90;;;;;;5094722;28;20625;-71
2022/06/30 02:07:26;;;;;;;10.50;9.60;;;20.60;99.90;;;;;;5094255;28;20552;-71
2022/06/30 02:09:53;;;;;;;11.47;10.30;;;20.50;99.90;;;;;;5094316;28;20466;-73
2022/06/30 02:15:08;;;;;;;10.07;9.07;;;20.60;99.90;;;;;;5094224;28;20494;-71
2022/06/30 02:17:34;;;;;;;9.97;9.17;;;20.60;99.90;;;;;;5094072;28;20530;-72
2022/06/30 02:20:01;;;;;;;10.80;9.40;;;20.50;99.90;;;;;;5094136;28;20890;-73
2022/06/30 02:22:28;;;;;;;10.83;10.03;;;20.50;99.90;;;;;;5094810;28;20537;-69
2022/06/30 02:24:55;;;;;;;10.53;9.53;;;20.40;99.90;;;;;;5095309;28;20525;-69
2022/06/30 02:27:24;;;;;;;10.90;9.90;;;20.40;99.90;;;;;;5095621;28;20867;-69
2022/06/30 02:29:51;;;;;;;9.83;8.93;;;20.30;99.90;;;;;;5095597;28;20560;-69
2022/06/30 02:32:20;;;;;;;9.40;8.50;;;20.30;99.90;;;;;;5095500;28;20454;-69
2022/06/30 02:34:47;;;;;;;10.73;9.80;;;20.30;99.90;;;;;;5095235;28;20474;-69
2022/06/30 02:37:14;;;;;;;11.23;9.87;;;20.30;99.90;;;;;;5095380;28;20537;-69
2022/06/30 02:39:41;;;;;;;10.67;9.77;;;20.30;99.90;;;;;;5095126;28;20510;-69
2022/06/30 02:42:08;;;;;;;10.40;9.50;;;20.30;99.90;;;;;;5095307;28;20450;-69
2022/06/30 02:44:35;;;;;;;10.87;10.00;;;20.30;99.90;;;;;;5095109;28;20538;-69
2022/06/30 02:47:02;;;;;;;10.60;9.80;;;20.30;99.90;;;;;;5095012;28;20538;-69
2022/06/30 02:49:30;;;;;;;10.67;9.73;;;20.30;99.90;;;;;;5094910;28;20466;-69
2022/06/30 02:51:57;;;;;;;10.87;9.87;;;20.20;99.90;;;;;;5095160;28;20474;-69
2022/06/30 02:54:24;;;;;;;11.13;10.03;;;20.20;99.90;;;;;;5094541;28;20576;-69
2022/06/30 02:56:51;;;;;;;11.30;10.40;;;20.20;99.90;;;;;;5095195;28;20442;-69
2022/06/30 02:59:18;;;;;;;10.93;10.03;;;20.20;99.90;;;;;;5095556;28;20880;-69
2022/06/30 03:01:45;;;;;;;11.00;10.10;;;20.20;99.90;;;;;;5094536;28;21006;-69
2022/06/30 03:04:12;;;;;;;11.27;10.37;;;20.20;99.90;;;;;;5094413;28;20533;-69
2022/06/30 03:06:40;;;;;;;10.70;9.90;;;20.20;99.90;;;;;;5094694;28;20541;-69
2022/06/30 03:09:08;;;;;;;11.27;10.17;;;20.10;99.90;;;;;;5094742;28;20541;-69
2022/06/30 03:11:35;;;;;;;11.17;10.17;;;20.10;99.90;;;;;;5094718;28;20454;-69
2022/06/30 03:14:01;;;;;;;11.13;10.10;;;20.00;99.90;;;;;;5094473;28;20537;-69
2022/06/30 03:16:28;;;;;;;10.10;9.10;;;20.00;99.90;;;;;;5094595;28;20475;-69
2022/06/30 03:18:55;;;;;;;10.87;9.90;;;20.00;99.90;;;;;;5094805;28;20473;-69
2022/06/30 03:21:22;;;;;;;10.37;9.57;;;20.00;99.90;;;;;;5094616;28;20478;-69
2022/06/30 03:23:51;;;;;;;10.87;9.83;;;20.10;99.90;;;;;;5094311;28;20484;-69
2022/06/30 03:26:18;;;;;;;11.37;10.37;;;20.00;99.90;;;;;;5094509;28;20473;-69
2022/06/30 03:28:45;;;;;;;11.17;10.27;;;20.00;99.90;;;;;;5094429;28;20447;-69
2022/06/30 03:31:12;;;;;;;10.63;9.73;;;20.00;99.90;;;;;;5094351;28;20554;-69
2022/06/30 03:33:39;;;;;;;10.80;9.90;;;20.00;99.90;;;;;;5094137;28;20446;-69
2022/06/30 03:36:06;;;;;;;10.20;9.40;;;19.90;99.90;;;;;;5094000;28;20561;-69
2022/06/30 03:38:33;;;;;;;10.37;9.47;;;19.90;99.90;;;;;;5094227;28;20470;-69
2022/06/30 03:41:01;;;;;;;10.70;9.80;;;19.90;99.90;;;;;;5094213;28;20478;-69
2022/06/30 03:43:28;;;;;;;10.13;9.30;;;19.80;99.90;;;;;;5094218;28;20776;-69
2022/06/30 03:45:55;;;;;;;10.87;9.87;;;19.80;99.90;;;;;;5093956;28;20441;-69
2022/06/30 03:48:22;;;;;;;11.40;10.30;;;19.80;99.90;;;;;;5094085;28;20533;-69
2022/06/30 03:50:48;;;;;;;10.70;9.70;;;19.90;99.90;;;;;;5093773;28;20897;-70
2022/06/30 03:53:15;;;;;;;10.50;9.50;;;19.90;99.90;;;;;;5094039;28;20863;-69
2022/06/30 03:55:42;;;;;;;10.50;9.60;;;19.90;99.90;;;;;;5093818;28;20477;-69
2022/06/30 03:58:10;;;;;;;10.30;9.40;;;19.90;99.90;;;;;;5093819;28;20480;-69
2022/06/30 04:00:38;;;;;;;10.13;9.23;;;19.90;99.90;;;;;;5093576;28;20496;-69
2022/06/30 04:03:05;;;;;;;10.63;9.60;;;19.90;99.90;;;;;;5093854;28;20514;-69
2022/06/30 04:05:32;;;;;;;10.33;9.43;;;19.90;99.90;;;;;;5093468;28;20473;-69
2022/06/30 04:07:59;;;;;;;9.97;9.17;;;19.80;99.90;;;;;;5093729;28;20892;-69
2022/06/30 04:10:26;;;;;;;11.10;10.10;;;19.80;99.90;;;;;;5093481;28;20494;-69
2022/06/30 04:12:53;;;;;;;11.20;10.20;;;19.70;99.90;;;;;;5092876;28;20442;-69
2022/06/30 04:15:21;;;;;;;11.00;10.07;;;19.60;99.90;;;;;;5093411;28;20512;-69
2022/06/30 04:17:48;;;;;;;10.77;9.73;;;19.70;99.90;;;;;;5093869;28;20478;-69
2022/06/30 04:20:18;;;;;;;10.03;9.20;;;19.80;99.90;;;;;;5093396;28;20501;-69
2022/06/30 04:22:47;;;;;;;10.20;9.30;;;19.80;99.90;;;;;;5093696;28;20472;-69
2022/06/30 04:25:15;;;;;;;11.03;10.03;;;19.80;99.90;;;;;;5093524;28;20476;-69
2022/06/30 04:27:44;;;;;;;11.73;10.50;;;19.90;99.90;;;;;;5093622;28;20478;-69
2022/06/30 04:30:12;;;;;;;9.80;8.90;;;19.90;99.90;;;;;;5093327;28;20498;-69
2022/06/30 04:32:39;;;;;;;10.60;9.70;;;20.00;99.90;;;;;;5093610;28;20481;-69
2022/06/30 04:35:08;;;;;;;11.73;10.53;;;19.90;99.90;;;;;;5093302;28;20515;-69
2022/06/30 04:37:35;;;;;;;11.20;10.20;;;19.90;99.90;;;;;;5093332;28;20479;-69
2022/06/30 04:42:47;;;;;;;12.40;11.10;;;19.90;99.90;;;;;;5093444;28;20404;-69
2022/06/30 04:45:14;;;;;;;12.23;11.23;;;20.00;99.90;;;;;;5093408;28;20477;-69
2022/06/30 04:47:42;;;;;;;12.57;11.47;;;19.90;99.90;;;;;;5093484;28;20481;-69
2022/06/30 04:50:10;;;;;;;12.70;11.60;;;19.80;99.90;;;;;;5093420;28;20492;-69
2022/06/30 04:52:37;;;;;;;14.50;13.03;;;19.70;99.90;;;;;;5093420;28;20478;-69
2022/06/30 04:55:04;;;;;;;13.63;12.43;;;19.60;99.90;;;;;;5092966;28;20518;-69
2022/06/30 04:57:31;;;;;;;13.27;12.00;;;19.60;99.90;;;;;;5093285;28;20938;-68
2022/06/30 04:59:58;;;;;;;13.70;12.40;;;19.70;99.90;;;;;;5093381;28;20565;-68
2022/06/30 05:02:25;;;;;;;13.83;12.70;;;19.80;99.90;;;;;;5093372;28;20442;-69
2022/06/30 05:04:53;;;;;;;13.40;12.30;;;19.90;99.90;;;;;;5093160;28;20478;-68
2022/06/30 05:07:21;;;;;;;13.60;12.40;;;20.10;99.90;;;;;;5093007;28;20884;-69
2022/06/30 05:09:48;;;;;;;13.80;12.37;;;20.20;99.90;;;;;;5093241;28;20466;-69
2022/06/30 05:12:15;;;;;;;12.67;11.67;;;20.10;99.90;;;;;;5093270;28;20486;-69
2022/06/30 05:14:42;;;;;;;13.10;11.90;;;20.10;99.90;;;;;;5093042;28;20565;-69
2022/06/30 05:17:09;;;;;;;14.07;12.77;;;20.10;99.90;;;;;;5093224;28;20478;-69
2022/06/30 05:19:36;;;;;;;13.80;12.50;;;20.10;99.90;;;;;;5093006;28;20498;-69
2022/06/30 05:22:04;;;;;;;13.10;11.93;;;20.10;99.90;;;;;;5092889;28;20482;-69
2022/06/30 05:27:16;;;;;;;14.53;13.13;;;20.10;99.90;;;;;;5097183;28;20445;-69
2022/06/30 05:29:43;;;;;;;14.33;13.03;;;20.10;99.90;;;;;;5096601;28;20462;-69
2022/06/30 05:32:10;;;;;;;14.77;13.37;;;20.20;99.90;;;;;;5096812;28;20453;-69
2022/06/30 05:34:37;;;;;;;14.37;13.17;;;20.10;99.90;;;;;;5096741;28;20450;-69
2022/06/30 05:37:05;;;;;;;13.57;12.30;;;20.00;99.90;;;;;;5096369;28;20516;-69
2022/06/30 05:39:32;;;;;;;13.70;12.50;;;20.00;99.90;;;;;;5096308;28;20465;-69
2022/06/30 05:42:00;;;;;;;15.37;13.80;;;20.00;99.90;;;;;;5096485;28;20449;-69
2022/06/30 05:44:27;;;;;;;14.97;13.57;;;20.00;99.90;;;;;;5096194;28;20450;-69
2022/06/30 05:46:55;;;;;;;14.70;13.30;;;20.10;99.90;;;;;;5096435;28;20442;-69
2022/06/30 05:49:22;;;;;;;15.83;13.80;;;20.10;99.90;;;;;;5096189;28;20476;-69
2022/06/30 05:51:48;;;;;;;14.67;13.30;;;20.10;99.90;;;;;;5096299;28;20534;-69
2022/06/30 05:54:17;;;;;;;15.43;14.03;;;20.10;99.90;;;;;;5096072;28;20473;-69
2022/06/30 05:56:44;;;;;;;15.00;13.40;;;20.20;99.90;;;;;;5095959;28;20510;-69
2022/06/30 05:59:11;;;;;;;16.93;15.43;;;20.20;99.90;;;;;;5095942;28;20940;-69
2022/06/30 06:01:37;;;;;;;16.20;14.60;;;20.40;99.90;;;;;;5096174;28;20453;-69
2022/06/30 06:04:05;;;;;;;15.80;14.10;;;20.40;99.90;;;;;;5095883;28;20483;-69
2022/06/30 06:06:32;;;;;;;17.57;15.50;;;20.50;99.90;;;;;;5095859;28;20431;-69
2022/06/30 06:08:58;;;;;;;14.30;13.00;;;20.60;99.90;;;;;;5095731;28;20941;-69
2022/06/30 06:11:27;;;;;;;15.00;13.70;;;20.70;99.90;;;;;;5096054;28;20884;-69
2022/06/30 06:13:53;;;;;;;16.63;14.90;;;20.70;99.90;;;;;;5095715;28;20493;-69
2022/06/30 06:16:20;;;;;;;15.20;13.83;;;20.80;99.90;;;;;;5095730;28;20562;-69
2022/06/30 06:18:47;;;;;;;16.27;14.67;;;20.90;99.90;;;;;;5095767;28;20865;-69
2022/06/30 06:21:14;;;;;;;16.77;15.20;;;21.00;99.90;;;;;;5095432;28;20494;-69
2022/06/30 06:23:41;;;;;;;15.60;14.00;;;21.00;99.90;;;;;;5095670;28;20443;-70
2022/06/30 06:26:08;;;;;;;14.90;13.53;;;21.10;99.90;;;;;;5095496;28;20478;-69
2022/06/30 06:31:20;;;;;;;14.53;13.23;;;21.30;99.90;;;;;;5095572;28;20457;-69
2022/06/30 06:33:48;;;;;;;15.27;13.77;;;21.30;99.90;;;;;;5095098;28;20469;-69
2022/06/30 06:36:15;;;;;;;15.27;13.67;;;21.40;99.90;;;;;;5094840;28;20474;-69
2022/06/30 06:38:42;;;;;;;14.73;13.43;;;21.50;99.90;;;;;;5095442;28;20495;-69
2022/06/30 06:41:09;;;;;;;12.87;11.70;;;21.60;99.90;;;;;;5095351;28;20462;-69
2022/06/30 06:43:37;;;;;;;13.90;12.70;;;21.70;99.90;;;;;;5095315;28;20478;-69
2022/06/30 06:46:04;;;;;;;13.30;12.20;;;21.80;99.90;;;;;;5094819;28;20498;-69
2022/06/30 06:48:31;;;;;;;14.40;13.03;;;22.00;99.90;;;;;;5094990;28;20985;-69
2022/06/30 06:50:57;;;;;;;13.47;12.37;;;22.20;99.90;;;;;;5095178;28;20472;-69
2022/06/30 06:53:24;;;;;;;12.93;11.83;;;22.30;99.90;;;;;;5095000;28;20539;-69
2022/06/30 06:55:51;;;;;;;12.67;11.60;;;22.50;99.90;;;;;;5094857;28;20870;-69
2022/06/30 06:58:18;;;;;;;11.10;10.20;;;22.60;99.90;;;;;;5094962;28;20497;-70
2022/06/30 07:00:46;;;;;;;11.77;10.77;;;22.90;99.90;;;;;;5094986;28;20501;-69
2022/06/30 07:03:13;;;;;;;11.13;10.23;;;23.20;99.90;;;;;;5094916;28;20499;-69
2022/06/30 07:05:41;;;;;;;11.17;10.30;;;23.90;99.90;;;;;;5094554;28;20443;-69
2022/06/30 07:08:08;;;;;;;11.40;10.50;;;24.20;99.90;;;;;;5094692;28;20463;-69
2022/06/30 07:10:35;;;;;;;10.40;9.60;;;24.50;99.90;;;;;;5094486;28;20471;-69
2022/06/30 07:13:02;;;;;;;11.10;10.20;;;24.60;99.90;;;;;;5094744;28;20447;-69
2022/06/30 07:15:29;;;;;;;9.90;9.10;;;24.60;99.90;;;;;;5094217;28;21075;-69
2022/06/30 07:17:58;;;;;;;11.37;9.80;;;24.70;99.90;;;;;;5094796;28;20487;-69
2022/06/30 07:20:25;;;;;;;10.93;10.00;;;24.90;99.90;;;;;;5094260;28;20499;-69
2022/06/30 07:22:52;;;;;;;9.73;8.87;;;25.30;99.90;;;;;;5094585;28;20482;-69
2022/06/30 07:25:19;;;;;;;10.53;9.60;;;25.50;99.90;;;;;;5094220;28;20484;-69
2022/06/30 07:27:46;;;;;;;10.37;9.57;;;25.70;99.90;;;;;;5094490;28;20858;-69
2022/06/30 07:30:13;;;;;;;10.73;9.73;;;25.70;99.90;;;;;;5094437;28;20555;-69
2022/06/30 07:32:40;;;;;;;11.00;10.03;;;25.50;99.90;;;;;;5094408;28;20440;-69
2022/06/30 07:35:10;;;;;;;12.70;11.10;;;25.20;99.90;;;;;;5093930;28;20475;-69
2022/06/30 07:37:40;;;;;;;12.30;11.40;;;25.00;99.90;;;;;;5094389;28;20439;-69
2022/06/30 07:40:08;;;;;;;12.30;11.40;;;24.80;99.90;;;;;;5094510;28;20506;-71
2022/06/30 07:42:35;;;;;;;12.17;11.10;;;24.60;99.90;;;;;;5101782;28;20962;-70
2022/06/30 07:45:02;;;;;;;12.20;11.20;;;24.50;99.90;;;;;;5093089;28;20451;-71
2022/06/30 07:47:29;;;;;;;11.20;10.40;;;24.30;99.90;;;;;;5092091;28;20500;-69
2022/06/30 07:49:56;;;;;;;11.80;10.63;;;24.30;99.90;;;;;;5093434;28;20464;-70
2022/06/30 07:52:25;;;;;;;10.00;9.20;;;24.50;99.90;;;;;;5092604;28;20482;-70
2022/06/30 07:54:52;;;;;;;10.17;9.30;;;25.40;99.90;;;;;;5092286;28;20488;-69
2022/06/30 07:57:19;;;;;;;11.33;9.93;;;26.50;99.90;;;;;;5092896;28;20546;-69
2022/06/30 07:59:45;;;;;;;10.87;9.80;;;27.10;99.90;;;;;;5092808;28;20892;-70
2022/06/30 08:02:13;;;;;;;10.80;9.90;;;27.60;99.90;;;;;;5092793;28;20983;-70
2022/06/30 08:04:40;;;;;;;11.40;10.60;;;27.90;99.90;;;;;;5092721;28;20475;-70
2022/06/30 08:07:07;;;;;;;10.80;9.90;;;28.10;99.90;;;;;;5092535;28;20448;-70
2022/06/30 08:09:35;;;;;;;10.97;10.07;;;28.40;99.70;;;;;;5093060;28;20558;-70
2022/06/30 08:12:02;;;;;;;12.47;11.13;;;28.30;99.50;;;;;;5093067;28;20534;-70
2022/06/30 08:14:30;;;;;;;11.83;10.93;;;28.00;99.20;;;;;;5092581;28;20462;-69
2022/06/30 08:16:57;;;;;;;11.03;10.07;;;27.60;99.90;;;;;;5092424;28;20513;-69
2022/06/30 08:19:24;;;;;;;11.10;10.30;;;27.60;99.90;;;;;;5092700;28;20558;-69
2022/06/30 08:21:51;;;;;;;10.97;10.10;;;27.50;99.90;;;;;;5092591;28;20456;-69
2022/06/30 08:24:18;;;;;;;10.97;10.20;;;27.30;99.90;;;;;;5092993;28;20472;-69
2022/06/30 08:26:46;;;;;;;11.17;10.40;;;27.20;99.90;;;;;;5093699;28;20465;-70
2022/06/30 08:29:13;;;;;;;10.97;10.17;;;27.20;99.90;;;;;;5093436;28;20475;-70
2022/06/30 08:31:41;;;;;;;11.00;10.20;;;27.20;99.90;;;;;;5093690;28;20520;-70
2022/06/30 08:34:07;;;;;;;10.70;9.70;;;27.50;99.90;;;;;;5093392;28;20494;-70
2022/06/30 08:36:34;;;;;;;11.50;10.47;;;27.60;99.90;;;;;;5093271;28;20516;-70
2022/06/30 08:39:02;;;;;;;10.10;9.33;;;27.80;99.90;;;;;;5093513;28;20449;-70
2022/06/30 08:44:19;;;;;;;8.70;8.00;;;28.50;97.90;;;;;;5093535;28;20501;-70
2022/06/30 08:46:47;;;;;;;9.60;8.80;;;29.30;98.30;;;;;;5093467;28;20446;-70
2022/06/30 08:49:14;;;;;;;9.37;8.67;;;29.40;95.10;;;;;;5094039;28;20767;-70
2022/06/30 08:51:46;;;;;;;9.33;8.57;;;29.80;96.00;;;;;;5093190;28;20952;-70
2022/06/30 08:54:17;;;;;;;9.50;8.87;;;30.20;94.60;;;;;;5093237;28;20468;-71
2022/06/30 08:56:46;;;;;;;8.90;8.30;;;30.50;93.50;;;;;;5093297;28;20468;-70
2022/06/30 08:59:13;;;;;;;8.23;7.63;;;30.50;91.30;;;;;;5096120;28;20471;-71
2022/06/30 09:01:42;;;;;;;8.63;8.03;;;30.90;92.80;;;;;;5097245;28;20450;-70
2022/06/30 09:04:11;;;;;;;8.77;8.17;;;31.70;90.80;;;;;;5096861;28;20745;-71
2022/06/30 09:06:38;;;;;;;10.03;9.13;;;32.00;85.10;;;;;;5097108;28;20484;-71
2022/06/30 09:09:06;;;;;;;8.97;8.30;;;32.20;84.30;;;;;;5097083;28;20446;-71
2022/06/30 09:11:48;;;;;;;9.93;9.23;;;33.00;82.50;;;;;;5097196;28;20476;-71
2022/06/30 09:14:34;;;;;;;10.23;9.43;;;32.90;83.50;;;;;;5097121;28;20447;-71
2022/06/30 09:17:02;;;;;;;9.80;9.00;;;33.80;80.70;;;;;;5096803;28;20518;-70
2022/06/30 09:19:30;;;;;;;8.93;8.30;;;34.60;75.50;;;;;;5096756;28;20985;-70
2022/06/30 09:22:05;;;;;;;11.07;10.07;;;35.60;68.60;;;;;;5096687;28;20481;-71
2022/06/30 09:24:32;;;;;;;8.53;7.87;;;37.40;63.60;;;;;;5096737;28;20850;-71
2022/06/30 09:27:14;;;;;;;8.23;7.70;;;38.80;62.00;;;;;;5096638;28;20487;-71
2022/06/30 09:29:53;;;;;;;7.70;7.27;;;40.30;54.70;;;;;;5096903;28;20479;-71
2022/06/30 09:32:21;;;;;;;7.27;6.77;;;41.10;48.60;;;;;;5096886;28;20878;-71
2022/06/30 09:34:49;;;;;;;7.00;6.40;;;40.60;48.90;;;;;;5096460;28;20486;-71
2022/06/30 09:37:18;;;;;;;8.63;8.03;;;39.40;45.70;;;;;;5097357;28;20484;-71
2022/06/30 09:39:46;;;;;;;9.73;9.03;;;37.90;49.90;;;;;;5096341;28;20495;-71
2022/06/30 09:42:13;;;;;;;9.53;8.93;;;37.30;51.80;;;;;;5096621;28;20945;-71
2022/06/30 09:44:40;;;;;;;8.40;7.90;;;37.50;53.30;;;;;;5096117;28;20479;-71
2022/06/30 09:47:10;;;;;;;7.20;6.70;;;38.10;50.20;;;;;;5096458;28;20933;-71
2022/06/30 09:49:40;;;;;;;8.20;7.70;;;38.40;48.70;;;;;;5096384;28;20483;-71
2022/06/30 09:52:17;;;;;;;8.33;7.83;;;38.40;49.00;;;;;;5096132;28;20917;-71
2022/06/30 09:54:54;;;;;;;8.57;8.00;;;38.60;48.50;;;;;;5096006;28;20813;-71
2022/06/30 09:57:21;;;;;;;8.20;7.70;;;38.30;48.90;;;;;;5096261;28;20475;-71
2022/06/30 09:59:59;;;;;;;8.23;7.70;;;38.20;51.00;;;;;;5096195;28;20507;-71
2022/06/30 10:02:31;;;;;;;8.40;7.80;;;38.70;49.40;;;;;;5095953;28;20486;-71
2022/06/30 10:04:59;;;;;;;8.30;7.63;;;39.90;50.30;;;;;;5095993;28;20456;-71
2022/06/30 10:07:27;;;;;;;8.23;7.70;;;39.80;45.70;;;;;;5095771;28;20570;-71
2022/06/30 10:09:54;;;;;;;8.93;8.33;;;38.10;47.60;;;;;;5095069;28;20471;-71
2022/06/30 10:12:22;;;;;;;8.63;7.83;;;36.00;50.40;;;;;;5095973;28;20444;-71
2022/06/30 10:14:51;;;;;;;8.50;7.90;;;34.10;54.80;;;;;;5095725;28;20539;-70
2022/06/30 10:17:21;;;;;;;8.17;7.47;;;33.50;56.00;;;;;;5095707;28;20436;-71
2022/06/30 10:19:49;;;;;;;8.57;8.00;;;34.30;54.90;;;;;;5095667;28;20495;-71
2022/06/30 10:22:18;;;;;;;8.10;7.60;;;35.40;53.10;;;;;;5096325;28;20487;-71
2022/06/30 10:24:46;;;;;;;6.70;6.20;;;36.10;51.80;;;;;;5095409;28;20853;-71
2022/06/30 10:27:13;;;;;;;7.10;6.60;;;37.30;53.10;;;;;;5095625;28;20486;-71
2022/06/30 10:29:44;;;;;;;7.20;6.57;;;37.50;50.70;;;;;;5095551;28;20500;-71
2022/06/30 10:32:20;;;;;;;6.37;5.97;;;38.10;48.20;;;;;;5095997;28;20898;-71
2022/06/30 10:34:56;;;;;;;5.43;5.13;;;38.20;45.80;;;;;;5095420;28;20809;-71
2022/06/30 10:37:30;;;;;;;6.87;6.37;;;37.80;44.70;;;;;;5095493;28;20451;-71
2022/06/30 10:40:01;;;;;;;6.60;6.10;;;37.40;49.30;;;;;;5095485;28;20498;-71
2022/06/30 10:42:43;;;;;;;6.70;6.10;;;36.70;47.70;;;;;;5095321;28;20458;-71
2022/06/30 10:45:34;;;;;;;7.93;7.23;;;35.70;51.00;;;;;;5095162;28;20495;-71
2022/06/30 10:48:03;;;;;;;6.40;6.00;;;35.30;54.80;;;;;;5095228;28;21038;-71
2022/06/30 10:50:35;;;;;;;7.30;6.80;;;35.00;54.00;;;;;;5095279;28;20472;-70
2022/06/30 10:53:04;;;;;;;6.53;6.03;;;34.60;51.80;;;;;;5095299;28;20491;-71
2022/06/30 10:55:43;;;;;;;12.40;11.33;;;34.20;51.30;;;;;;5095097;28;20483;-71
2022/06/30 10:58:11;;;;;;;7.03;6.53;;;33.90;53.50;;;;;;5095137;28;20444;-71
2022/06/30 11:00:50;;;;;;;7.40;6.80;;;33.30;54.80;;;;;;5095501;28;20874;-71
2022/06/30 11:03:59;;;;;;;7.77;6.90;;;33.00;56.30;;;;;;5095002;28;20475;-71
2022/06/30 11:06:55;;;;;;;6.70;6.10;;;32.70;55.00;;;;;;5094755;28;20471;-71
2022/06/30 11:09:58;;;;;;;6.93;6.30;;;32.60;57.70;;;;;;5094740;28;20503;-71
2022/06/30 11:12:53;;;;;;;8.23;7.37;;;32.50;55.00;;;;;;5094574;28;20494;-71
2022/06/30 11:15:20;;;;;;;7.00;6.50;;;32.30;55.50;;;;;;5094427;28;20439;-71
2022/06/30 11:17:48;;;;;;;6.47;6.07;;;32.00;54.80;;;;;;5094777;28;20473;-70
2022/06/30 11:20:15;;;;;;;7.27;6.70;;;31.60;56.20;;;;;;5094474;28;20470;-70
2022/06/30 11:22:43;;;;;;;7.10;6.60;;;31.40;55.70;;;;;;5094790;28;20441;-70
2022/06/30 11:27:17;;;;;;;7.47;6.67;;;31.50;58.10;;;;;;5094161;28;20484;-70
2022/06/30 11:28:00;;;;;;;7.30;6.80;;;31.70;56.60;;;;;;5094188;28;20498;-70
2022/06/30 11:30:30;;;;;;;6.90;6.40;;;31.90;57.30;;;;;;5094536;28;20869;-71
2022/06/30 11:32:58;;;;;;;6.77;6.27;;;32.10;59.00;;;;;;5094448;28;20946;-71
2022/06/30 11:35:28;;;;;;;6.77;6.27;;;32.20;58.40;;;;;;5093967;28;20482;-71
2022/06/30 11:37:55;;;;;;;6.93;6.43;;;32.20;57.60;;;;;;5094351;28;20482;-70
2022/06/30 11:40:23;;;;;;;7.00;6.40;;;32.00;54.90;;;;;;5094261;28;20471;-70
2022/06/30 11:42:53;;;;;;;7.67;7.00;;;31.90;54.10;;;;;;5094237;28;20487;-70
2022/06/30 11:45:21;;;;;;;7.13;6.50;;;31.80;54.50;;;;;;5093960;28;20448;-70
2022/06/30 11:47:54;;;;;;;6.83;6.27;;;31.80;56.00;;;;;;5094125;28;20479;-71
2022/06/30 11:50:23;;;;;;;7.80;7.20;;;31.90;54.80;;;;;;5093844;28;20983;-71
2022/06/30 11:52:51;;;;;;;6.93;6.43;;;31.70;54.80;;;;;;5094174;28;20442;-70
2022/06/30 11:55:18;;;;;;;7.27;6.70;;;31.40;55.30;;;;;;5094243;28;20479;-70
2022/06/30 11:57:49;;;;;;;7.53;6.93;;;31.40;55.70;;;;;;5094061;28;20477;-70
2022/06/30 12:00:20;;;;;;;6.53;6.13;;;31.60;56.90;;;;;;5093942;28;20496;-70
2022/06/30 12:02:48;;;;;;;7.43;6.83;;;31.80;57.90;;;;;;5094014;28;20775;-71
2022/06/30 12:05:16;;;;;;;8.03;7.00;;;32.00;57.70;;;;;;5093793;28;20841;-71
2022/06/30 12:07:44;;;;;;;7.30;6.77;;;32.10;57.20;;;;;;5093821;28;20484;-71
2022/06/30 12:10:13;;;;;;;7.30;6.70;;;32.30;55.70;;;;;;5093683;28;20499;-70
2022/06/30 12:12:41;;;;;;;7.37;6.77;;;32.30;56.10;;;;;;5093879;28;20499;-71
2022/06/30 12:15:13;;;;;;;7.97;7.23;;;32.40;56.10;;;;;;5093456;28;20475;-71
2022/06/30 12:17:41;;;;;;;7.70;7.10;;;32.50;55.70;;;;;;5094437;28;20502;-70
2022/06/30 12:20:11;;;;;;;7.17;6.67;;;32.40;55.80;;;;;;5093759;28;20491;-70
2022/06/30 12:22:41;;;;;;;8.07;7.10;;;32.30;55.80;;;;;;5093782;28;20483;-71
2022/06/30 12:25:09;;;;;;;7.63;6.10;;;32.40;56.40;;;;;;5093479;28;20455;-70
2022/06/30 12:27:38;;;;;;;7.73;7.00;;;32.60;55.90;;;;;;5093529;28;20476;-71
2022/06/30 12:30:10;;;;;;;7.40;7.00;;;32.50;56.40;;;;;;5093653;28;20492;-71
2022/06/30 12:32:37;;;;;;;7.60;6.93;;;32.60;54.00;;;;;;5093989;28;20569;-70
2022/06/30 12:35:06;;;;;;;7.40;6.70;;;32.60;56.50;;;;;;5097669;28;20464;-71
2022/06/30 12:37:35;;;;;;;7.00;6.27;;;32.60;56.10;;;;;;5097793;28;20497;-70
2022/06/30 12:40:05;;;;;;;6.50;6.00;;;32.60;54.50;;;;;;5097508;28;20499;-70
2022/06/30 12:42:46;;;;;;;6.50;5.87;;;32.60;53.50;;;;;;5097711;28;20449;-70
2022/06/30 12:45:45;;;;;;;11.20;10.30;;;32.60;54.00;;;;;;5097491;28;20562;-71
2022/06/30 12:48:13;;;;;;;8.30;7.70;;;32.60;54.20;;;;;;5097504;28;20472;-71
2022/06/30 12:50:43;;;;;;;6.83;6.37;;;32.70;55.20;;;;;;5097552;28;20495;-70
2022/06/30 12:53:19;;;;;;;6.70;6.30;;;32.80;54.10;;;;;;5097745;28;20544;-71
2022/06/30 12:56:01;;;;;;;6.57;6.10;;;32.90;54.40;;;;;;5097370;28;20435;-71
2022/06/30 12:58:42;;;;;;;6.40;6.10;;;32.90;53.40;;;;;;5097306;28;20471;-70
2022/06/30 13:01:13;;;;;;;6.70;6.20;;;32.90;54.70;;;;;;5097101;28;20500;-71
2022/06/30 13:03:52;;;;;;;6.67;6.27;;;32.90;53.40;;;;;;5097353;28;20626;-70